sensor_id;sensor_type;location;lat;lon;timestamp;pressure;altitude;pressure_sealevel;temperature;humidity
71716;BME280;59568;52.128;5.434;2023-08-12T00:00:57;101861.56;;;19.50;91.20
71716;BME280;59568;52.128;5.434;2023-08-12T00:03:24;101863.91;;;19.52;90.74
71716;BME280;59568;52.128;5.434;2023-08-12T00:05:52;101869.97;;;19.52;92.30
71716;BME280;59568;52.128;5.434;2023-08-12T00:08:19;101878.25;;;19.51;91.45
71716;BME280;59568;52.128;5.434;2023-08-12T00:10:46;101867.94;;;19.49;91.71
71716;BME280;59568;52.128;5.434;2023-08-12T00:13:12;101856.88;;;19.47;91.44
71716;BME280;59568;52.128;5.434;2023-08-12T00:15:44;101863.00;;;19.48;92.04
71716;BME280;59568;52.128;5.434;2023-08-12T00:18:11;101862.19;;;19.47;91.08
71716;BME280;59568;52.128;5.434;2023-08-12T00:20:38;101863.75;;;19.48;92.23
71716;BME280;59568;52.128;5.434;2023-08-12T00:23:04;101865.94;;;19.46;91.70
71716;BME280;59568;52.128;5.434;2023-08-12T00:25:31;101854.44;;;19.42;91.82
71716;BME280;59568;52.128;5.434;2023-08-12T00:27:58;101857.09;;;19.42;91.08
71716;BME280;59568;52.128;5.434;2023-08-12T00:30:24;101862.69;;;19.41;90.56
71716;BME280;59568;52.128;5.434;2023-08-12T00:32:51;101848.41;;;19.33;91.31
71716;BME280;59568;52.128;5.434;2023-08-12T00:35:18;101844.22;;;19.32;91.13
71716;BME280;59568;52.128;5.434;2023-08-12T00:37:45;101843.09;;;19.33;91.13
71716;BME280;59568;52.128;5.434;2023-08-12T00:40:12;101844.53;;;19.30;91.21
71716;BME280;59568;52.128;5.434;2023-08-12T00:42:39;101840.66;;;19.28;91.41
71716;BME280;59568;52.128;5.434;2023-08-12T00:45:09;101829.59;;;19.26;91.35
71716;BME280;59568;52.128;5.434;2023-08-12T00:47:37;101828.78;;;19.25;91.14
71716;BME280;59568;52.128;5.434;2023-08-12T00:50:04;101821.19;;;19.24;91.04
71716;BME280;59568;52.128;5.434;2023-08-12T00:52:31;101819.94;;;19.21;91.39
71716;BME280;59568;52.128;5.434;2023-08-12T00:54:58;101817.28;;;19.21;91.74
71716;BME280;59568;52.128;5.434;2023-08-12T00:57:25;101813.41;;;19.19;92.10
71716;BME280;59568;52.128;5.434;2023-08-12T00:59:55;101817.78;;;19.14;92.13
71716;BME280;59568;52.128;5.434;2023-08-12T01:02:22;101820.75;;;19.13;93.17
71716;BME280;59568;52.128;5.434;2023-08-12T01:04:49;101815.75;;;19.11;92.59
71716;BME280;59568;52.128;5.434;2023-08-12T01:07:16;101813.47;;;19.10;92.26
71716;BME280;59568;52.128;5.434;2023-08-12T01:09:43;101809.56;;;19.07;91.89
71716;BME280;59568;52.128;5.434;2023-08-12T01:12:13;101806.44;;;19.05;91.92
71716;BME280;59568;52.128;5.434;2023-08-12T01:14:52;101797.41;;;19.06;91.70
71716;BME280;59568;52.128;5.434;2023-08-12T01:17:21;101796.97;;;19.04;91.91
71716;BME280;59568;52.128;5.434;2023-08-12T01:19:49;101794.94;;;19.01;92.10
71716;BME280;59568;52.128;5.434;2023-08-12T01:22:16;101797.13;;;18.99;92.50
71716;BME280;59568;52.128;5.434;2023-08-12T01:24:47;101803.84;;;18.96;91.65
71716;BME280;59568;52.128;5.434;2023-08-12T01:27:14;101800.44;;;18.96;92.35
71716;BME280;59568;52.128;5.434;2023-08-12T01:29:43;101790.16;;;18.94;92.19
71716;BME280;59568;52.128;5.434;2023-08-12T01:32:36;101792.03;;;18.94;92.70
71716;BME280;59568;52.128;5.434;2023-08-12T01:35:09;101802.16;;;18.92;91.78
71716;BME280;59568;52.128;5.434;2023-08-12T01:37:40;101782.06;;;18.91;91.97
71716;BME280;59568;52.128;5.434;2023-08-12T01:40:09;101784.25;;;18.89;92.49
71716;BME280;59568;52.128;5.434;2023-08-12T01:42:38;101778.19;;;18.88;92.64
71716;BME280;59568;52.128;5.434;2023-08-12T01:45:06;101772.13;;;18.88;93.83
71716;BME280;59568;52.128;5.434;2023-08-12T01:47:33;101762.59;;;18.87;92.68
71716;BME280;59568;52.128;5.434;2023-08-12T01:50:00;101768.66;;;18.87;93.08
71716;BME280;59568;52.128;5.434;2023-08-12T01:52:26;101761.97;;;18.90;93.11
71716;BME280;59568;52.128;5.434;2023-08-12T01:54:53;101755.13;;;18.89;92.84
71716;BME280;59568;52.128;5.434;2023-08-12T01:57:19;101761.53;;;18.88;93.04
71716;BME280;59568;52.128;5.434;2023-08-12T01:59:46;101758.06;;;18.87;93.08
71716;BME280;59568;52.128;5.434;2023-08-12T02:02:13;101752.66;;;18.84;92.70
71716;BME280;59568;52.128;5.434;2023-08-12T02:04:40;101751.25;;;18.86;93.53
71716;BME280;59568;52.128;5.434;2023-08-12T02:07:08;101753.44;;;18.84;92.56
71716;BME280;59568;52.128;5.434;2023-08-12T02:09:36;101750.47;;;18.86;93.36
71716;BME280;59568;52.128;5.434;2023-08-12T02:12:02;101748.91;;;18.85;93.21
71716;BME280;59568;52.128;5.434;2023-08-12T02:14:29;101744.72;;;18.84;93.80
71716;BME280;59568;52.128;5.434;2023-08-12T02:16:56;101739.72;;;18.82;93.50
71716;BME280;59568;52.128;5.434;2023-08-12T02:19:23;101742.69;;;18.81;94.43
71716;BME280;59568;52.128;5.434;2023-08-12T02:21:49;101740.81;;;18.81;94.28
71716;BME280;59568;52.128;5.434;2023-08-12T02:24:16;101740.34;;;18.79;94.36
71716;BME280;59568;52.128;5.434;2023-08-12T02:26:43;101739.28;;;18.80;93.96
71716;BME280;59568;52.128;5.434;2023-08-12T02:29:09;101733.66;;;18.82;94.37
71716;BME280;59568;52.128;5.434;2023-08-12T02:31:36;101736.31;;;18.82;94.78
71716;BME280;59568;52.128;5.434;2023-08-12T02:34:03;101730.69;;;18.83;94.89
71716;BME280;59568;52.128;5.434;2023-08-12T02:36:30;101737.53;;;18.84;95.08
71716;BME280;59568;52.128;5.434;2023-08-12T02:38:57;101729.28;;;18.86;96.02
71716;BME280;59568;52.128;5.434;2023-08-12T02:41:23;101723.53;;;18.84;96.50
71716;BME280;59568;52.128;5.434;2023-08-12T02:43:50;101717.13;;;18.85;96.85
71716;BME280;59568;52.128;5.434;2023-08-12T02:46:16;101721.81;;;18.88;96.75
71716;BME280;59568;52.128;5.434;2023-08-12T02:48:45;101725.53;;;18.87;97.08
71716;BME280;59568;52.128;5.434;2023-08-12T02:51:11;101726.28;;;18.87;97.83
71716;BME280;59568;52.128;5.434;2023-08-12T02:53:38;101721.47;;;18.89;99.03
71716;BME280;59568;52.128;5.434;2023-08-12T02:56:06;101715.41;;;18.89;98.90
71716;BME280;59568;52.128;5.434;2023-08-12T02:58:32;101713.50;;;18.89;99.37
71716;BME280;59568;52.128;5.434;2023-08-12T03:01:02;101713.19;;;18.91;99.48
71716;BME280;59568;52.128;5.434;2023-08-12T03:03:30;101712.13;;;18.92;99.71
71716;BME280;59568;52.128;5.434;2023-08-12T03:05:57;101699.97;;;18.91;99.13
71716;BME280;59568;52.128;5.434;2023-08-12T03:08:24;101692.81;;;18.91;99.88
71716;BME280;59568;52.128;5.434;2023-08-12T03:10:58;101694.66;;;18.91;99.87
71716;BME280;59568;52.128;5.434;2023-08-12T03:13:26;101685.63;;;18.92;100.00
71716;BME280;59568;52.128;5.434;2023-08-12T03:15:53;101687.16;;;18.93;100.00
71716;BME280;59568;52.128;5.434;2023-08-12T03:18:20;101690.63;;;18.93;100.00
71716;BME280;59568;52.128;5.434;2023-08-12T03:20:47;101683.44;;;18.94;100.00
71716;BME280;59568;52.128;5.434;2023-08-12T03:23:14;101683.44;;;18.94;100.00
71716;BME280;59568;52.128;5.434;2023-08-12T03:25:41;101683.91;;;18.96;100.00
71716;BME280;59568;52.128;5.434;2023-08-12T03:28:08;101677.84;;;18.95;100.00
71716;BME280;59568;52.128;5.434;2023-08-12T03:30:34;101687.00;;;18.98;100.00
71716;BME280;59568;52.128;5.434;2023-08-12T03:33:01;101674.06;;;18.96;100.00
71716;BME280;59568;52.128;5.434;2023-08-12T03:35:28;101677.94;;;18.99;100.00
71716;BME280;59568;52.128;5.434;2023-08-12T03:37:54;101677.63;;;19.01;100.00
71716;BME280;59568;52.128;5.434;2023-08-12T03:40:21;101678.38;;;19.01;100.00
71716;BME280;59568;52.128;5.434;2023-08-12T03:42:48;101662.97;;;19.03;100.00
71716;BME280;59568;52.128;5.434;2023-08-12T03:45:14;101666.72;;;19.02;100.00
71716;BME280;59568;52.128;5.434;2023-08-12T03:47:41;101660.31;;;19.03;100.00
71716;BME280;59568;52.128;5.434;2023-08-12T03:50:08;101658.09;;;19.05;100.00
71716;BME280;59568;52.128;5.434;2023-08-12T03:52:34;101653.59;;;19.06;100.00
71716;BME280;59568;52.128;5.434;2023-08-12T03:55:01;101654.06;;;19.08;100.00
71716;BME280;59568;52.128;5.434;2023-08-12T03:57:27;101648.75;;;19.08;100.00
71716;BME280;59568;52.128;5.434;2023-08-12T03:59:54;101651.88;;;19.10;100.00
71716;BME280;59568;52.128;5.434;2023-08-12T04:02:21;101647.03;;;19.12;100.00
71716;BME280;59568;52.128;5.434;2023-08-12T04:04:48;101635.63;;;19.11;100.00
71716;BME280;59568;52.128;5.434;2023-08-12T04:07:15;101644.03;;;19.13;100.00
71716;BME280;59568;52.128;5.434;2023-08-12T04:09:41;101637.97;;;19.13;100.00
71716;BME280;59568;52.128;5.434;2023-08-12T04:12:08;101635.63;;;19.11;100.00
71716;BME280;59568;52.128;5.434;2023-08-12T04:14:34;101634.53;;;19.12;100.00
71716;BME280;59568;52.128;5.434;2023-08-12T04:17:01;101625.81;;;19.12;100.00
71716;BME280;59568;52.128;5.434;2023-08-12T04:19:28;101627.69;;;19.11;100.00
71716;BME280;59568;52.128;5.434;2023-08-12T04:21:54;101617.75;;;19.08;100.00
71716;BME280;59568;52.128;5.434;2023-08-12T04:24:21;101619.72;;;19.11;100.00
71716;BME280;59568;52.128;5.434;2023-08-12T04:26:49;101629.69;;;19.14;100.00
71716;BME280;59568;52.128;5.434;2023-08-12T04:29:15;101627.03;;;19.14;100.00
71716;BME280;59568;52.128;5.434;2023-08-12T04:31:42;101625.63;;;19.17;100.00
71716;BME280;59568;52.128;5.434;2023-08-12T04:34:09;101623.41;;;19.19;100.00
71716;BME280;59568;52.128;5.434;2023-08-12T04:36:36;101626.19;;;19.23;100.00
71716;BME280;59568;52.128;5.434;2023-08-12T04:39:03;101617.59;;;19.26;100.00
71716;BME280;59568;52.128;5.434;2023-08-12T04:41:29;101614.28;;;19.29;100.00
71716;BME280;59568;52.128;5.434;2023-08-12T04:43:56;101605.03;;;19.35;100.00
71716;BME280;59568;52.128;5.434;2023-08-12T04:46:23;101601.41;;;19.40;100.00
71716;BME280;59568;52.128;5.434;2023-08-12T04:48:50;101598.25;;;19.46;100.00
71716;BME280;59568;52.128;5.434;2023-08-12T04:51:16;101584.31;;;19.49;100.00
71716;BME280;59568;52.128;5.434;2023-08-12T04:53:43;101575.72;;;19.52;100.00
71716;BME280;59568;52.128;5.434;2023-08-12T04:56:11;101587.22;;;19.56;100.00
71716;BME280;59568;52.128;5.434;2023-08-12T04:58:38;101578.16;;;19.58;100.00
71716;BME280;59568;52.128;5.434;2023-08-12T05:01:05;101575.94;;;19.60;100.00
71716;BME280;59568;52.128;5.434;2023-08-12T05:03:32;101570.66;;;19.60;100.00
71716;BME280;59568;52.128;5.434;2023-08-12T05:05:59;101568.78;;;19.60;100.00
71716;BME280;59568;52.128;5.434;2023-08-12T05:08:26;101574.09;;;19.60;100.00
71716;BME280;59568;52.128;5.434;2023-08-12T05:10:53;101565.69;;;19.58;100.00
71716;BME280;59568;52.128;5.434;2023-08-12T05:13:21;101560.03;;;19.60;100.00
71716;BME280;59568;52.128;5.434;2023-08-12T05:15:50;101568.78;;;19.60;100.00
71716;BME280;59568;52.128;5.434;2023-08-12T05:18:17;101574.53;;;19.62;100.00
71716;BME280;59568;52.128;5.434;2023-08-12T05:20:43;101579.03;;;19.62;100.00
71716;BME280;59568;52.128;5.434;2023-08-12T05:23:12;101575.63;;;19.61;100.00
71716;BME280;59568;52.128;5.434;2023-08-12T05:25:39;101577.97;;;19.63;100.00
71716;BME280;59568;52.128;5.434;2023-08-12T05:28:07;101571.44;;;19.60;100.00
71716;BME280;59568;52.128;5.434;2023-08-12T05:30:35;101576.84;;;19.64;100.00
71716;BME280;59568;52.128;5.434;2023-08-12T05:33:02;101579.50;;;19.64;100.00
71716;BME280;59568;52.128;5.434;2023-08-12T05:35:33;101578.41;;;19.65;100.00
71716;BME280;59568;52.128;5.434;2023-08-12T05:38:00;101569.78;;;19.68;100.00
71716;BME280;59568;52.128;5.434;2023-08-12T05:40:27;101578.19;;;19.70;100.00
71716;BME280;59568;52.128;5.434;2023-08-12T05:42:54;101577.13;;;19.71;100.00
71716;BME280;59568;52.128;5.434;2023-08-12T05:45:21;101577.41;;;19.69;100.00
71716;BME280;59568;52.128;5.434;2023-08-12T05:47:47;101576.63;;;19.69;100.00
71716;BME280;59568;52.128;5.434;2023-08-12T05:50:14;101574.31;;;19.67;100.00
71716;BME280;59568;52.128;5.434;2023-08-12T05:52:41;101575.06;;;19.68;100.00
71716;BME280;59568;52.128;5.434;2023-08-12T05:55:07;101576.63;;;19.69;100.00
71716;BME280;59568;52.128;5.434;2023-08-12T05:57:34;101571.00;;;19.70;100.00
71716;BME280;59568;52.128;5.434;2023-08-12T06:00:01;101573.66;;;19.70;100.00
71716;BME280;59568;52.128;5.434;2023-08-12T06:02:28;101562.75;;;19.72;100.00
71716;BME280;59568;52.128;5.434;2023-08-12T06:05:17;101561.19;;;19.71;100.00
71716;BME280;59568;52.128;5.434;2023-08-12T06:07:43;101566.50;;;19.71;100.00
71716;BME280;59568;52.128;5.434;2023-08-12T06:10:10;101567.59;;;19.70;100.00
71716;BME280;59568;52.128;5.434;2023-08-12T06:12:38;101574.75;;;19.69;100.00
71716;BME280;59568;52.128;5.434;2023-08-12T06:15:05;101572.44;;;19.68;100.00
71716;BME280;59568;52.128;5.434;2023-08-12T06:17:33;101570.88;;;19.67;100.00
71716;BME280;59568;52.128;5.434;2023-08-12T06:20:06;101572.44;;;19.68;100.00
71716;BME280;59568;52.128;5.434;2023-08-12T06:22:34;101561.38;;;19.66;100.00
71716;BME280;59568;52.128;5.434;2023-08-12T06:25:08;101559.16;;;19.68;100.00
71716;BME280;59568;52.128;5.434;2023-08-12T06:27:35;101562.28;;;19.70;100.00
71716;BME280;59568;52.128;5.434;2023-08-12T06:30:04;101569.22;;;19.62;100.00
71716;BME280;59568;52.128;5.434;2023-08-12T06:32:38;101566.78;;;19.57;100.00
71716;BME280;59568;52.128;5.434;2023-08-12T06:35:05;101565.00;;;19.49;100.00
71716;BME280;59568;52.128;5.434;2023-08-12T06:37:34;101573.19;;;19.44;100.00
71716;BME280;59568;52.128;5.434;2023-08-12T06:40:01;101574.00;;;19.35;100.00
71716;BME280;59568;52.128;5.434;2023-08-12T06:42:28;101575.00;;;19.31;100.00
71716;BME280;59568;52.128;5.434;2023-08-12T06:45:10;101572.56;;;19.26;100.00
71716;BME280;59568;52.128;5.434;2023-08-12T06:47:44;101573.19;;;19.23;100.00
71716;BME280;59568;52.128;5.434;2023-08-12T06:50:11;101571.22;;;19.20;100.00
71716;BME280;59568;52.128;5.434;2023-08-12T06:52:46;101564.81;;;19.21;100.00
71716;BME280;59568;52.128;5.434;2023-08-12T06:55:16;101557.31;;;19.23;100.00
71716;BME280;59568;52.128;5.434;2023-08-12T06:57:43;101553.88;;;19.22;100.00
71716;BME280;59568;52.128;5.434;2023-08-12T07:00:10;101549.81;;;19.25;100.00
71716;BME280;59568;52.128;5.434;2023-08-12T07:02:40;101552.78;;;19.23;100.00
71716;BME280;59568;52.128;5.434;2023-08-12T07:05:11;101552.00;;;19.23;100.00
71716;BME280;59568;52.128;5.434;2023-08-12T07:07:46;101555.78;;;19.22;100.00
71716;BME280;59568;52.128;5.434;2023-08-12T07:10:13;101542.53;;;19.22;100.00
71716;BME280;59568;52.128;5.434;2023-08-12T07:12:40;101549.69;;;19.21;100.00
71716;BME280;59568;52.128;5.434;2023-08-12T07:15:07;101542.97;;;19.24;100.00
71716;BME280;59568;52.128;5.434;2023-08-12T07:17:33;101545.19;;;19.22;100.00
71716;BME280;59568;52.128;5.434;2023-08-12T07:20:04;101541.09;;;19.24;100.00
71716;BME280;59568;52.128;5.434;2023-08-12T07:22:31;101534.81;;;19.29;100.00
71716;BME280;59568;52.128;5.434;2023-08-12T07:24:58;101535.13;;;19.27;100.00
71716;BME280;59568;52.128;5.434;2023-08-12T07:27:28;101534.03;;;19.28;100.00
71716;BME280;59568;52.128;5.434;2023-08-12T07:29:55;101539.00;;;19.30;100.00
71716;BME280;59568;52.128;5.434;2023-08-12T07:32:21;101529.50;;;19.29;100.00
71716;BME280;59568;52.128;5.434;2023-08-12T07:34:48;101526.72;;;19.25;100.00
71716;BME280;59568;52.128;5.434;2023-08-12T07:37:15;101524.88;;;19.26;100.00
71716;BME280;59568;52.128;5.434;2023-08-12T07:39:42;101522.66;;;19.28;100.00
71716;BME280;59568;52.128;5.434;2023-08-12T07:42:08;101523.56;;;19.32;100.00
71716;BME280;59568;52.128;5.434;2023-08-12T07:44:49;101519.78;;;19.33;100.00
71716;BME280;59568;52.128;5.434;2023-08-12T07:47:15;101514.63;;;19.36;100.00
71716;BME280;59568;52.128;5.434;2023-08-12T07:49:43;101515.84;;;19.39;100.00
71716;BME280;59568;52.128;5.434;2023-08-12T07:52:09;101516.59;;;19.40;100.00
71716;BME280;59568;52.128;5.434;2023-08-12T07:54:36;101513.19;;;19.39;100.00
71716;BME280;59568;52.128;5.434;2023-08-12T07:57:05;101513.19;;;19.39;100.00
71716;BME280;59568;52.128;5.434;2023-08-12T07:59:31;101510.34;;;19.44;100.00
71716;BME280;59568;52.128;5.434;2023-08-12T08:01:58;101512.75;;;19.49;100.00
71716;BME280;59568;52.128;5.434;2023-08-12T08:04:25;101521.50;;;19.50;100.00
71716;BME280;59568;52.128;5.434;2023-08-12T08:06:51;101522.59;;;19.49;100.00
71716;BME280;59568;52.128;5.434;2023-08-12T08:09:18;101518.72;;;19.46;100.00
71716;BME280;59568;52.128;5.434;2023-08-12T08:11:45;101525.78;;;19.42;100.00
71716;BME280;59568;52.128;5.434;2023-08-12T08:14:11;101529.09;;;19.39;100.00
71716;BME280;59568;52.128;5.434;2023-08-12T08:16:41;101518.47;;;19.39;100.00
71716;BME280;59568;52.128;5.434;2023-08-12T08:19:08;101521.56;;;19.41;100.00
71716;BME280;59568;52.128;5.434;2023-08-12T08:21:39;101527.00;;;19.45;100.00
71716;BME280;59568;52.128;5.434;2023-08-12T08:24:06;101523.13;;;19.42;100.00
71716;BME280;59568;52.128;5.434;2023-08-12T08:26:34;101521.56;;;19.41;100.00
71716;BME280;59568;52.128;5.434;2023-08-12T08:29:01;101515.50;;;19.41;100.00
71716;BME280;59568;52.128;5.434;2023-08-12T08:31:28;101514.75;;;19.40;100.00
71716;BME280;59568;52.128;5.434;2023-08-12T08:33:54;101519.25;;;19.40;100.00
71716;BME280;59568;52.128;5.434;2023-08-12T08:36:21;101517.97;;;19.46;100.00
71716;BME280;59568;52.128;5.434;2023-08-12T08:38:48;101520.50;;;19.54;100.00
71716;BME280;59568;52.128;5.434;2023-08-12T08:41:16;101523.28;;;19.58;100.00
71716;BME280;59568;52.128;5.434;2023-08-12T08:43:43;101536.97;;;19.60;100.00
71716;BME280;59568;52.128;5.434;2023-08-12T08:46:15;101533.53;;;19.60;100.00
71716;BME280;59568;52.128;5.434;2023-08-12T08:48:43;101532.00;;;19.59;100.00
71716;BME280;59568;52.128;5.434;2023-08-12T08:51:14;101532.88;;;19.63;100.00
71716;BME280;59568;52.128;5.434;2023-08-12T08:53:42;101540.28;;;19.69;100.00
71716;BME280;59568;52.128;5.434;2023-08-12T08:56:11;101535.22;;;19.64;100.00
71716;BME280;59568;52.128;5.434;2023-08-12T08:58:41;101537.94;;;19.55;100.00
71716;BME280;59568;52.128;5.434;2023-08-12T09:01:08;101536.28;;;19.51;100.00
71716;BME280;59568;52.128;5.434;2023-08-12T09:03:47;101541.47;;;19.47;100.00
71716;BME280;59568;52.128;5.434;2023-08-12T09:06:25;101543.22;;;19.43;100.00
71716;BME280;59568;52.128;5.434;2023-08-12T09:08:54;101560.31;;;19.33;100.00
71716;BME280;59568;52.128;5.434;2023-08-12T09:11:21;101566.59;;;19.29;100.00
71716;BME280;59568;52.128;5.434;2023-08-12T09:13:48;101576.75;;;19.27;100.00
71716;BME280;59568;52.128;5.434;2023-08-12T09:16:16;101577.59;;;19.19;100.00
71716;BME280;59568;52.128;5.434;2023-08-12T09:18:43;101579.44;;;19.06;100.00
71716;BME280;59568;52.128;5.434;2023-08-12T09:21:11;101583.69;;;18.98;100.00
71716;BME280;59568;52.128;5.434;2023-08-12T09:23:39;101577.81;;;18.92;100.00
71716;BME280;59568;52.128;5.434;2023-08-12T09:26:17;101561.47;;;18.90;100.00
71716;BME280;59568;52.128;5.434;2023-08-12T09:28:45;101550.13;;;18.90;100.00
71716;BME280;59568;52.128;5.434;2023-08-12T09:31:23;101557.84;;;18.95;100.00
71716;BME280;59568;52.128;5.434;2023-08-12T09:33:51;101566.69;;;18.99;100.00
71716;BME280;59568;52.128;5.434;2023-08-12T09:36:18;101568.25;;;19.00;100.00
71716;BME280;59568;52.128;5.434;2023-08-12T09:38:45;101588.09;;;18.94;100.00
71716;BME280;59568;52.128;5.434;2023-08-12T09:41:12;101587.19;;;18.90;100.00
71716;BME280;59568;52.128;5.434;2023-08-12T09:43:42;101588.94;;;18.86;100.00
71716;BME280;59568;52.128;5.434;2023-08-12T09:46:13;101585.41;;;18.82;100.00
71716;BME280;59568;52.128;5.434;2023-08-12T09:48:42;101600.44;;;18.90;100.00
71716;BME280;59568;52.128;5.434;2023-08-12T09:51:09;101597.25;;;18.96;100.00
71716;BME280;59568;52.128;5.434;2023-08-12T09:53:37;101597.00;;;18.89;100.00
71716;BME280;59568;52.128;5.434;2023-08-12T09:56:07;101601.63;;;19.13;100.00
71716;BME280;59568;52.128;5.434;2023-08-12T09:58:35;101616.38;;;19.23;100.00
71716;BME280;59568;52.128;5.434;2023-08-12T10:01:04;101621.44;;;19.16;100.00
71716;BME280;59568;52.128;5.434;2023-08-12T10:03:34;101623.09;;;19.21;100.00
71716;BME280;59568;52.128;5.434;2023-08-12T10:06:05;101626.19;;;19.23;100.00
71716;BME280;59568;52.128;5.434;2023-08-12T10:08:32;101624.41;;;19.14;100.00
71716;BME280;59568;52.128;5.434;2023-08-12T10:11:01;101621.28;;;19.12;100.00
71716;BME280;59568;52.128;5.434;2023-08-12T10:13:40;101615.91;;;19.42;100.00
71716;BME280;59568;52.128;5.434;2023-08-12T10:16:08;101606.97;;;19.80;100.00
71716;BME280;59568;52.128;5.434;2023-08-12T10:18:38;101594.06;;;20.03;100.00
71716;BME280;59568;52.128;5.434;2023-08-12T10:21:06;101591.19;;;20.21;100.00
71716;BME280;59568;52.128;5.434;2023-08-12T10:23:35;101597.25;;;20.46;100.00
71716;BME280;59568;52.128;5.434;2023-08-12T10:26:05;101598.13;;;20.62;100.00
71716;BME280;59568;52.128;5.434;2023-08-12T10:28:31;101606.41;;;20.73;100.00
71716;BME280;59568;52.128;5.434;2023-08-12T10:31:06;101615.44;;;20.84;100.00
71716;BME280;59568;52.128;5.434;2023-08-12T10:33:38;101602.19;;;21.12;100.00
71716;BME280;59568;52.128;5.434;2023-08-12T10:36:05;101613.81;;;21.36;100.00
71716;BME280;59568;52.128;5.434;2023-08-12T10:38:52;101602.22;;;21.57;100.00
71716;BME280;59568;52.128;5.434;2023-08-12T10:41:49;101596.06;;;21.84;100.00
71716;BME280;59568;52.128;5.434;2023-08-12T10:44:39;101600.19;;;21.82;100.00
71716;BME280;59568;52.128;5.434;2023-08-12T10:47:10;101604.75;;;21.37;100.00
71716;BME280;59568;52.128;5.434;2023-08-12T10:50:05;101612.00;;;21.24;100.00
71716;BME280;59568;52.128;5.434;2023-08-12T10:52:34;101620.13;;;21.15;100.00
71716;BME280;59568;52.128;5.434;2023-08-12T10:55:16;101621.66;;;21.17;100.00
71716;BME280;59568;52.128;5.434;2023-08-12T10:57:57;101617.19;;;21.33;100.00
71716;BME280;59568;52.128;5.434;2023-08-12T11:00:26;101603.44;;;21.59;100.00
71716;BME280;59568;52.128;5.434;2023-08-12T11:02:54;101613.22;;;22.03;100.00
71716;BME280;59568;52.128;5.434;2023-08-12T11:05:22;101612.44;;;22.18;100.00
71716;BME280;59568;52.128;5.434;2023-08-12T11:07:59;101615.63;;;21.76;100.00
71716;BME280;59568;52.128;5.434;2023-08-12T11:10:33;101612.63;;;21.62;100.00
71716;BME280;59568;52.128;5.434;2023-08-12T11:13:02;101606.09;;;21.75;100.00
71716;BME280;59568;52.128;5.434;2023-08-12T11:15:43;101606.59;;;22.12;100.00
71716;BME280;59568;52.128;5.434;2023-08-12T11:18:14;101604.28;;;22.27;100.00
71716;BME280;59568;52.128;5.434;2023-08-12T11:20:40;101608.75;;;22.07;100.00
71716;BME280;59568;52.128;5.434;2023-08-12T11:23:08;101604.81;;;22.32;100.00
71716;BME280;59568;52.128;5.434;2023-08-12T11:25:37;101599.97;;;22.22;100.00
71716;BME280;59568;52.128;5.434;2023-08-12T11:28:18;101598.94;;;22.43;100.00
71716;BME280;59568;52.128;5.434;2023-08-12T11:30:46;101597.53;;;22.49;100.00
71716;BME280;59568;52.128;5.434;2023-08-12T11:33:12;101592.88;;;22.62;100.00
71716;BME280;59568;52.128;5.434;2023-08-12T11:35:44;101606.66;;;22.48;100.00
71716;BME280;59568;52.128;5.434;2023-08-12T11:38:11;101603.13;;;22.60;100.00
71716;BME280;59568;52.128;5.434;2023-08-12T11:40:39;101606.63;;;22.64;100.00
71716;BME280;59568;52.128;5.434;2023-08-12T11:43:06;101608.28;;;22.91;100.00
71716;BME280;59568;52.128;5.434;2023-08-12T11:45:33;101613.47;;;22.65;100.00
71716;BME280;59568;52.128;5.434;2023-08-12T11:48:00;101610.28;;;22.40;100.00
71716;BME280;59568;52.128;5.434;2023-08-12T11:50:27;101603.25;;;22.31;100.00
71716;BME280;59568;52.128;5.434;2023-08-12T11:52:56;101597.28;;;22.73;100.00
71716;BME280;59568;52.128;5.434;2023-08-12T11:55:23;101602.28;;;22.94;100.00
71716;BME280;59568;52.128;5.434;2023-08-12T11:57:51;101611.84;;;23.15;100.00
71716;BME280;59568;52.128;5.434;2023-08-12T12:00:19;101605.22;;;23.28;100.00
71716;BME280;59568;52.128;5.434;2023-08-12T12:05:13;101603.97;;;23.22;100.00
71716;BME280;59568;52.128;5.434;2023-08-12T12:07:42;101609.25;;;23.42;100.00
71716;BME280;59568;52.128;5.434;2023-08-12T12:10:13;101605.00;;;23.60;100.00
71716;BME280;59568;52.128;5.434;2023-08-12T12:12:44;101601.34;;;23.68;100.00
71716;BME280;59568;52.128;5.434;2023-08-12T12:15:14;101612.88;;;23.76;100.00
71716;BME280;59568;52.128;5.434;2023-08-12T12:17:45;101601.28;;;23.88;100.00
71716;BME280;59568;52.128;5.434;2023-08-12T12:20:13;101609.06;;;23.97;100.00
71716;BME280;59568;52.128;5.434;2023-08-12T12:22:42;101616.25;;;23.92;100.00
71716;BME280;59568;52.128;5.434;2023-08-12T12:25:14;101606.75;;;23.95;100.00
71716;BME280;59568;52.128;5.434;2023-08-12T12:27:45;101610.50;;;24.17;100.00
71716;BME280;59568;52.128;5.434;2023-08-12T12:30:12;101608.66;;;23.95;100.00
71716;BME280;59568;52.128;5.434;2023-08-12T12:32:40;101615.31;;;24.08;100.00
71716;BME280;59568;52.128;5.434;2023-08-12T12:35:07;101609.34;;;23.91;100.00
71716;BME280;59568;52.128;5.434;2023-08-12T12:37:35;101609.41;;;23.95;100.00
71716;BME280;59568;52.128;5.434;2023-08-12T12:40:02;101619.56;;;24.12;100.00
71716;BME280;59568;52.128;5.434;2023-08-12T12:42:30;101621.56;;;24.46;100.00
71716;BME280;59568;52.128;5.434;2023-08-12T12:44:56;101616.38;;;24.53;100.00
71716;BME280;59568;52.128;5.434;2023-08-12T12:47:23;101615.53;;;24.49;100.00
71716;BME280;59568;52.128;5.434;2023-08-12T12:49:50;101624.06;;;24.58;100.00
71716;BME280;59568;52.128;5.434;2023-08-12T12:52:17;101616.84;;;24.62;100.00